Khatanga, Russia
Current Conditions -  °F | °C
As of 3:00 AM on Thursday 29 Jan 2015 (Local Time) from UEEE Reporting Station
Light Snow Light Snow  
Wind Chill: -35°   Ceiling: 20000
Heat Index: -35°   Visibility: 1.5mi
Dew Point: -42°   Wind: 0mph
Humidity: 68%   Direction: NA
Pressure: 30.03"   Gusts: NA
Location:  71.97°N, 102.5°E
Report Text: UEEE 282000Z 00000MPS 2400 -SN BR OVC200 M37/M41 Q1017 NOSIGRMK QFE754 23490150
Loading
Personal Weather Stations






























Interactive Weather Map New forecast layout! Learn more

10-Day Weather Forecast

Advertisements
Track Severe Weather on mobile